Time;durP1;ratioP1;P1;durP2;ratioP2;P2;SDS_P1;SDS_P2;PMS_P1;PMS_P2;Temp;Humidity;BMP_temperature;BMP_pressure;BME280_temperature;BME280_humidity;BME280_pressure;Samples;Min_cycle;Max_cycle;Signal;HPM_P1;HPM_P2
2023/07/21 10:34:03;;;;;;;2.50;1.15;;;22.20;99.90;;;;;;4932960;29;20039;-81
2023/07/21 10:36:52;;;;;;;2.13;1.38;;;22.80;99.90;;;;;;4934463;29;20072;-83
2023/07/21 10:39:22;;;;;;;2.50;1.52;;;23.20;99.90;;;;;;4934573;29;20487;-81
2023/07/21 10:41:55;;;;;;;4.03;1.30;;;23.60;99.90;;;;;;4942333;29;20068;-82
2023/07/21 10:44:22;;;;;;;3.72;2.10;;;24.10;99.90;;;;;;4931717;29;20095;-82
2023/07/21 10:46:50;;;;;;;5.05;2.13;;;24.50;99.90;;;;;;4994794;23;20047;-85
2023/07/21 10:49:19;;;;;;;4.72;1.52;;;24.80;99.90;;;;;;4959163;29;20023;-86
2023/07/21 10:51:47;;;;;;;4.45;1.73;;;25.10;99.90;;;;;;4974495;28;20035;-86
2023/07/21 10:54:16;;;;;;;3.80;1.50;;;25.30;99.20;;;;;;4959016;29;20620;-86
2023/07/21 10:56:43;;;;;;;;;;;25.60;98.10;;;;;;4958162;29;20055;-86
2023/07/21 10:59:10;;;;;;;6.27;2.23;;;25.70;96.10;;;;;;4960890;28;19952;-86
2023/07/21 11:01:44;;;;;;;;;;;25.80;96.50;;;;;;4944506;29;20275;-86
2023/07/21 11:04:14;;;;;;;4.40;2.28;;;26.00;95.40;;;;;;4940256;29;19910;-86
2023/07/21 11:06:54;;;;;;;6.07;2.67;;;26.30;94.20;;;;;;4941964;28;20118;-85
2023/07/21 11:09:21;;;;;;;4.38;2.45;;;26.50;91.10;;;;;;4959479;29;20035;-86
2023/07/21 11:11:58;;;;;;;3.05;2.17;;;26.50;91.30;;;;;;4957266;29;20397;-86
2023/07/21 11:14:26;;;;;;;2.88;2.28;;;26.70;90.60;;;;;;4953983;29;20058;-86
2023/07/21 11:16:54;;;;;;;3.58;2.20;;;26.80;87.40;;;;;;4938096;29;20035;-86
2023/07/21 11:19:21;;;;;;;5.85;2.00;;;26.90;88.60;;;;;;4949045;29;20105;-89
2023/07/21 11:21:47;;;;;;;5.28;2.05;;;27.00;87.60;;;;;;4924227;29;20039;-86
2023/07/21 11:24:22;;;;;;;5.90;2.10;;;27.00;87.90;;;;;;4932319;29;20035;-85
2023/07/21 11:26:49;;;;;;;3.90;1.88;;;27.10;88.00;;;;;;4944057;29;20031;-87
2023/07/21 11:29:16;;;;;;;;;;;27.40;88.80;;;;;;4965146;29;20027;-85
2023/07/21 11:31:43;;;;;;;6.13;1.85;;;27.60;87.90;;;;;;4962778;29;20293;-86
2023/07/21 11:34:22;;;;;;;1.95;1.60;;;27.90;88.80;;;;;;4963033;29;20024;-85
2023/07/21 11:36:51;;;;;;;4.30;2.15;;;28.20;84.10;;;;;;4946751;29;20023;-88
2023/07/21 11:39:22;;;;;;;18.25;3.00;;;28.30;85.00;;;;;;4962500;29;20034;-85
2023/07/21 11:41:50;;;;;;;5.55;1.85;;;28.60;81.70;;;;;;4946904;29;20035;-86
2023/07/21 11:44:22;;;;;;;4.00;2.00;;;28.70;82.20;;;;;;4964482;29;20033;-85
2023/07/21 11:46:54;;;;;;;5.82;2.47;;;28.90;81.00;;;;;;4963071;28;20035;-86
2023/07/21 11:49:25;;;;;;;5.78;2.03;;;29.00;79.80;;;;;;4963053;29;20037;-86
2023/07/21 11:51:52;;;;;;;5.18;2.40;;;29.20;78.80;;;;;;4963774;28;20039;-85
2023/07/21 11:54:28;;;;;;;3.67;2.22;;;29.20;76.30;;;;;;4966779;29;20023;-89
2023/07/21 11:56:56;;;;;;;5.10;2.25;;;29.20;74.50;;;;;;4967593;29;20038;-85
2023/07/21 11:59:23;;;;;;;6.57;2.60;;;29.30;73.70;;;;;;4969127;29;20051;-86
2023/07/21 12:01:50;;;;;;;4.53;2.50;;;29.40;74.00;;;;;;4961635;28;20043;-90
2023/07/21 12:04:20;;;;;;;4.22;2.53;;;29.60;73.10;;;;;;4978187;29;20032;-86
2023/07/21 12:06:46;;;;;;;5.03;3.33;;;29.80;72.40;;;;;;4965951;29;20107;-85
2023/07/21 12:09:12;;;;;;;4.38;2.08;;;30.00;70.70;;;;;;4962176;29;20023;-85
2023/07/21 12:11:38;;;;;;;3.67;2.55;;;30.20;69.00;;;;;;4936893;29;20127;-86
2023/07/21 12:14:04;;;;;;;4.30;2.70;;;30.40;68.70;;;;;;4941085;29;20557;-86
2023/07/21 12:16:34;;;;;;;4.65;2.75;;;30.30;67.10;;;;;;4941749;29;20523;-86
2023/07/21 12:19:00;;;;;;;3.13;2.10;;;30.30;68.60;;;;;;4954426;29;20031;-86
2023/07/21 12:21:26;;;;;;;3.50;2.50;;;30.50;69.80;;;;;;4959424;29;20058;-86
2023/07/21 12:23:52;;;;;;;5.10;2.20;;;30.70;70.00;;;;;;4961903;29;20042;-86
2023/07/21 12:26:19;;;;;;;4.63;1.98;;;30.70;65.20;;;;;;4960606;28;20027;-86
2023/07/21 12:28:49;;;;;;;3.97;2.30;;;30.70;65.90;;;;;;4959073;29;20102;-88
2023/07/21 12:31:15;;;;;;;3.55;2.63;;;31.00;66.50;;;;;;4942696;29;20039;-86
2023/07/21 12:33:42;;;;;;;3.78;2.45;;;31.10;66.40;;;;;;4960914;29;20039;-87
2023/07/21 12:36:09;;;;;;;4.55;2.70;;;31.10;64.30;;;;;;4958259;29;20042;-86
2023/07/21 12:38:35;;;;;;;3.67;2.75;;;31.20;64.50;;;;;;4960312;28;20054;-87
2023/07/21 12:41:01;;;;;;;5.78;2.80;;;31.20;64.50;;;;;;4960152;28;20050;-87
2023/07/21 12:43:27;;;;;;;4.63;2.63;;;31.20;64.60;;;;;;4959102;29;20035;-88
2023/07/21 12:45:53;;;;;;;4.75;2.90;;;31.30;63.80;;;;;;4958181;29;20034;-85
2023/07/21 12:48:19;;;;;;;5.28;2.72;;;31.50;64.30;;;;;;4943751;29;20035;-86
2023/07/21 12:50:45;;;;;;;5.68;2.80;;;31.50;63.30;;;;;;4942451;29;20031;-85
2023/07/21 12:53:10;;;;;;;4.32;2.63;;;31.50;64.30;;;;;;4957887;29;20035;-85
2023/07/21 12:55:36;;;;;;;10.30;3.00;;;31.60;63.60;;;;;;4957411;29;20046;-86
2023/07/21 12:58:02;;;;;;;8.40;3.42;;;31.70;62.50;;;;;;4941833;29;20035;-86
2023/07/21 13:00:28;;;;;;;4.20;2.63;;;31.90;61.00;;;;;;4957400;29;20059;-86
2023/07/21 13:02:54;;;;;;;4.43;2.95;;;32.10;61.80;;;;;;4956684;29;20408;-86
2023/07/21 13:05:20;;;;;;;4.53;2.65;;;32.30;61.20;;;;;;4958027;29;20085;-88
2023/07/21 13:07:46;;;;;;;6.15;2.45;;;32.30;61.30;;;;;;4955807;29;20039;-88
2023/07/21 13:10:12;;;;;;;7.57;3.40;;;32.40;61.50;;;;;;4941448;29;20118;-86
2023/07/21 13:12:38;;;;;;;3.50;2.45;;;32.50;61.30;;;;;;4956967;29;20031;-86
2023/07/21 13:15:05;;;;;;;5.57;2.90;;;32.80;60.50;;;;;;4955963;29;20028;-86
2023/07/21 13:17:31;;;;;;;4.75;2.70;;;33.20;60.60;;;;;;4955427;29;20035;-86
2023/07/21 13:19:57;;;;;;;7.00;3.25;;;33.50;59.10;;;;;;4939644;29;20541;-86
2023/07/21 13:22:23;;;;;;;4.45;2.55;;;34.10;57.70;;;;;;4955383;29;20046;-86
2023/07/21 13:24:49;;;;;;;4.55;3.08;;;34.70;56.60;;;;;;4956149;29;20402;-86
2023/07/21 13:27:15;;;;;;;5.95;2.85;;;35.60;55.50;;;;;;4954937;29;20071;-86
2023/07/21 13:29:41;;;;;;;3.00;2.10;;;36.60;53.10;;;;;;4954656;29;20082;-86
2023/07/21 13:32:08;;;;;;;8.10;3.42;;;37.50;51.20;;;;;;4937966;29;20043;-86
2023/07/21 13:34:34;;;;;;;6.00;3.03;;;38.20;50.50;;;;;;4955267;28;20486;-86
2023/07/21 13:37:00;;;;;;;6.65;3.22;;;38.90;49.00;;;;;;4953834;29;20031;-86
2023/07/21 13:39:25;;;;;;;7.18;3.90;;;39.60;48.30;;;;;;4938218;29;20038;-86
2023/07/21 13:41:52;;;;;;;;;;;40.10;47.60;;;;;;4954171;29;20035;-87
2023/07/21 13:44:18;;;;;;;6.18;2.58;;;40.40;47.20;;;;;;4932029;29;19941;-86
2023/07/21 13:46:44;;;;;;;4.97;3.30;;;40.60;45.50;;;;;;4950804;29;20114;-87
2023/07/21 13:49:11;;;;;;;7.82;2.72;;;41.10;44.70;;;;;;4954804;28;20336;-90
2023/07/21 13:51:37;;;;;;;3.85;2.10;;;41.60;44.50;;;;;;4952146;28;20102;-84
2023/07/21 13:54:03;;;;;;;5.60;2.95;;;42.00;43.00;;;;;;4937512;29;20490;-85
2023/07/21 13:56:28;;;;;;;4.60;3.20;;;42.40;42.50;;;;;;4954616;28;20023;-86
2023/07/21 13:58:54;;;;;;;2.75;2.50;;;43.00;42.30;;;;;;4954993;29;20078;-84
2023/07/21 14:01:20;;;;;;;4.50;2.83;;;43.60;41.00;;;;;;4957502;29;20471;-82
2023/07/21 14:03:46;;;;;;;3.95;2.85;;;43.90;40.90;;;;;;4959437;29;20122;-82
2023/07/21 14:06:14;;;;;;;3.67;2.90;;;44.20;40.50;;;;;;4960205;29;20035;-82
2023/07/21 14:08:41;;;;;;;6.95;2.60;;;44.30;40.20;;;;;;4962072;29;20032;-82
2023/07/21 14:11:08;;;;;;;2.85;2.55;;;44.50;40.20;;;;;;4944567;29;20713;-82
2023/07/21 14:13:34;;;;;;;5.40;2.30;;;45.00;41.00;;;;;;4960850;29;20047;-82
2023/07/21 14:16:00;;;;;;;4.25;2.92;;;45.30;39.70;;;;;;4959681;29;20053;-82
2023/07/21 14:18:26;;;;;;;2.67;2.38;;;45.30;39.30;;;;;;4959550;29;20071;-82
2023/07/21 14:20:52;;;;;;;6.07;2.88;;;45.20;39.00;;;;;;4956293;29;20070;-84
2023/07/21 14:23:19;;;;;;;4.75;2.78;;;45.10;38.70;;;;;;4945475;29;20039;-85
2023/07/21 14:25:45;;;;;;;2.63;2.25;;;45.30;38.50;;;;;;4940082;29;20026;-84
2023/07/21 14:28:10;;;;;;;9.77;2.60;;;45.80;38.60;;;;;;4952176;29;20118;-85
2023/07/21 14:30:36;;;;;;;3.45;2.83;;;46.30;37.90;;;;;;4947459;29;20023;-85
2023/07/21 14:33:03;;;;;;;23.10;9.02;;;46.50;37.80;;;;;;4953044;29;20111;-84
2023/07/21 14:35:28;;;;;;;3.15;2.83;;;46.50;37.20;;;;;;4951956;29;20031;-87
2023/07/21 14:37:54;;;;;;;4.85;3.60;;;46.50;36.90;;;;;;4951963;29;20027;-85
2023/07/21 14:40:21;;;;;;;5.43;3.25;;;46.50;37.10;;;;;;4950767;29;20028;-86
2023/07/21 14:42:47;;;;;;;5.78;2.25;;;46.70;38.00;;;;;;4952311;29;20485;-86
2023/07/21 14:45:15;;;;;;;5.47;2.38;;;46.70;36.70;;;;;;4953689;28;20029;-85
2023/07/21 14:47:41;;;;;;;8.45;2.97;;;46.70;36.60;;;;;;4936545;29;20032;-84
2023/07/21 14:50:08;;;;;;;3.75;2.75;;;46.60;36.40;;;;;;4933377;29;20506;-85
2023/07/21 14:52:34;;;;;;;3.30;2.92;;;46.50;36.20;;;;;;4933416;29;20031;-85
2023/07/21 14:55:01;;;;;;;3.05;2.75;;;46.30;36.40;;;;;;4933816;29;20039;-85
2023/07/21 14:57:27;;;;;;;4.15;2.80;;;46.40;36.90;;;;;;4917143;29;20117;-86
2023/07/21 14:59:53;;;;;;;2.95;2.63;;;46.50;37.10;;;;;;4916711;29;20057;-86
2023/07/21 15:02:19;;;;;;;3.65;2.88;;;46.30;37.00;;;;;;4918264;29;20498;-87
2023/07/21 15:04:45;;;;;;;3.42;2.47;;;46.10;37.70;;;;;;4921690;29;20020;-83
2023/07/21 15:07:11;;;;;;;4.30;2.53;;;45.60;38.10;;;;;;4945365;29;20031;-84
2023/07/21 15:09:39;;;;;;;7.55;2.30;;;44.90;39.40;;;;;;4949425;29;20079;-84
2023/07/21 15:12:05;;;;;;;4.55;2.50;;;43.90;40.40;;;;;;4937173;29;20099;-84
2023/07/21 15:14:31;;;;;;;4.45;2.47;;;42.70;41.50;;;;;;4949607;29;20034;-84
2023/07/21 15:16:57;;;;;;;3.28;2.00;;;41.80;41.30;;;;;;4956436;29;20031;-84
2023/07/21 15:19:23;;;;;;;3.22;2.03;;;40.90;41.90;;;;;;4956529;29;20039;-84
2023/07/21 15:21:49;;;;;;;2.85;2.33;;;40.40;42.50;;;;;;4944473;29;20042;-84
2023/07/21 15:24:16;;;;;;;2.58;2.15;;;40.00;43.80;;;;;;4938517;29;20118;-85
2023/07/21 15:26:42;;;;;;;4.03;2.40;;;39.60;44.60;;;;;;4938721;29;20407;-86
2023/07/21 15:29:08;;;;;;;2.83;2.38;;;39.40;44.90;;;;;;4921606;29;20036;-85
2023/07/21 15:31:40;;;;;;;3.58;2.10;;;39.20;45.10;;;;;;4937968;29;20054;-85
2023/07/21 15:34:06;;;;;;;3.78;2.40;;;38.80;45.80;;;;;;4939689;29;20046;-85
2023/07/21 15:36:32;;;;;;;3.42;2.55;;;38.60;46.40;;;;;;4947269;29;20487;-85
2023/07/21 15:39:01;;;;;;;3.60;2.38;;;38.30;47.00;;;;;;4950090;29;20115;-85
2023/07/21 15:41:27;;;;;;;9.65;2.65;;;38.00;47.70;;;;;;4946951;29;20096;-86
2023/07/21 15:43:53;;;;;;;3.47;2.22;;;37.90;48.40;;;;;;4980487;28;20027;-85
2023/07/21 15:46:19;;;;;;;;;;;37.70;46.80;;;;;;4961254;29;20034;-85
2023/07/21 15:48:45;;;;;;;3.97;2.43;;;37.50;47.10;;;;;;4948631;29;19938;-86
2023/07/21 15:51:11;;;;;;;4.72;2.58;;;37.40;47.30;;;;;;4947008;29;20020;-85
2023/07/21 15:53:37;;;;;;;;;;;37.20;47.50;;;;;;4954332;29;20421;-85
2023/07/21 15:56:03;;;;;;;7.68;3.33;;;37.10;49.20;;;;;;4950234;29;19910;-86
2023/07/21 15:58:29;;;;;;;4.07;2.30;;;36.90;47.40;;;;;;4947675;29;20031;-85
2023/07/21 16:00:58;;;;;;;;;;;36.70;47.90;;;;;;4960671;29;20031;-87
2023/07/21 16:03:25;;;;;;;5.07;2.90;;;36.60;49.20;;;;;;4957760;29;19977;-87
2023/07/21 16:05:52;;;;;;;4.32;2.38;;;36.30;48.10;;;;;;4967095;28;20055;-85
2023/07/21 16:08:21;;;;;;;5.05;2.08;;;36.20;48.40;;;;;;4966746;29;20023;-83
2023/07/21 16:10:57;;;;;;;6.93;2.60;;;36.10;48.50;;;;;;4964168;29;20506;-84
2023/07/21 16:13:22;;;;;;;6.00;2.53;;;36.00;49.10;;;;;;4967585;28;20031;-85
2023/07/21 16:15:51;;;;;;;7.97;2.75;;;35.70;49.20;;;;;;4967291;29;20074;-86
2023/07/21 16:18:18;;;;;;;4.25;2.17;;;35.50;50.30;;;;;;4970216;29;20035;-86
2023/07/21 16:20:44;;;;;;;4.43;2.42;;;35.40;50.30;;;;;;4971863;28;20034;-85
2023/07/21 16:23:12;;;;;;;6.25;2.60;;;35.20;50.30;;;;;;4969013;29;20098;-85
2023/07/21 16:25:38;;;;;;;5.57;2.58;;;35.10;50.70;;;;;;4955255;29;20062;-86
2023/07/21 16:28:05;;;;;;;6.88;2.47;;;34.80;51.60;;;;;;4971147;29;20034;-87
2023/07/21 16:30:30;;;;;;;5.18;2.80;;;34.60;52.20;;;;;;4972346;29;20027;-85
2023/07/21 16:32:56;;;;;;;5.78;2.80;;;34.50;52.80;;;;;;4973396;29;20413;-86
2023/07/21 16:35:23;;;;;;;4.38;2.70;;;34.30;53.00;;;;;;4974296;29;20087;-86
2023/07/21 16:37:49;;;;;;;10.25;3.25;;;34.20;53.50;;;;;;4972545;29;20034;-85
2023/07/21 16:40:16;;;;;;;11.55;3.47;;;34.00;53.50;;;;;;4972222;29;20052;-86
2023/07/21 16:42:43;;;;;;;5.43;2.78;;;33.90;53.60;;;;;;4971075;28;20118;-85
2023/07/21 16:45:12;;;;;;;11.00;3.58;;;33.80;54.20;;;;;;4953405;29;20039;-85
2023/07/21 16:47:39;;;;;;;8.98;3.67;;;33.70;54.50;;;;;;5023540;23;20051;-80
2023/07/21 16:50:06;;;;;;;8.95;2.65;;;33.60;54.90;;;;;;4988943;28;20113;-81
2023/07/21 16:52:32;;;;;;;6.32;3.00;;;33.60;55.10;;;;;;5006965;28;20030;-79
2023/07/21 16:54:58;;;;;;;5.85;2.83;;;33.50;54.60;;;;;;4975196;28;20030;-81
2023/07/21 16:57:24;;;;;;;7.45;2.83;;;33.50;54.40;;;;;;4997317;28;20082;-80
2023/07/21 16:59:50;;;;;;;4.13;2.30;;;33.40;54.40;;;;;;5010475;28;20036;-80
2023/07/21 17:02:16;;;;;;;3.80;2.17;;;33.40;54.70;;;;;;4998281;28;20093;-81
2023/07/21 17:04:43;;;;;;;5.13;2.65;;;33.20;55.00;;;;;;5007056;28;20023;-81
2023/07/21 17:07:10;;;;;;;3.05;2.33;;;33.20;55.40;;;;;;5007686;28;20297;-81
2023/07/21 17:09:35;;;;;;;5.28;2.03;;;33.20;56.10;;;;;;5002956;28;20085;-83
2023/07/21 17:12:01;;;;;;;4.43;2.65;;;33.10;56.10;;;;;;5000542;28;20041;-83
2023/07/21 17:14:27;;;;;;;7.03;2.65;;;33.00;56.50;;;;;;4985902;28;20041;-84
2023/07/21 17:16:53;;;;;;;6.25;2.65;;;32.90;56.80;;;;;;4985693;28;20043;-84
2023/07/21 17:19:21;;;;;;;4.25;2.50;;;32.90;57.10;;;;;;4993175;28;20034;-81
2023/07/21 17:21:47;;;;;;;2.78;2.20;;;32.90;58.00;;;;;;4992345;28;20114;-79
2023/07/21 17:24:13;;;;;;;4.25;2.30;;;32.90;57.90;;;;;;5002530;28;20025;-81
2023/07/21 17:26:39;;;;;;;5.07;2.58;;;32.90;58.30;;;;;;4991100;28;20113;-79
2023/07/21 17:29:05;;;;;;;8.25;3.13;;;32.90;58.20;;;;;;4985207;28;20030;-80
2023/07/21 17:31:31;;;;;;;9.25;2.95;;;32.90;57.90;;;;;;4991080;28;20031;-81
2023/07/21 17:33:57;;;;;;;3.13;2.22;;;33.00;57.80;;;;;;5002253;28;20037;-80
2023/07/21 17:36:23;;;;;;;6.38;2.45;;;32.90;58.10;;;;;;5000123;28;20459;-81
2023/07/21 17:38:49;;;;;;;4.40;2.40;;;33.00;58.50;;;;;;5004628;28;20058;-81
2023/07/21 17:41:15;;;;;;;9.13;1.98;;;32.90;59.00;;;;;;5002712;28;20026;-80
2023/07/21 17:43:41;;;;;;;5.05;2.60;;;32.80;59.20;;;;;;4996075;28;20031;-79
2023/07/21 17:46:07;;;;;;;5.43;2.55;;;32.70;59.70;;;;;;5005091;28;20034;-80
2023/07/21 17:48:33;;;;;;;14.20;2.95;;;32.70;60.40;;;;;;5001474;28;20094;-80
2023/07/21 17:50:59;;;;;;;6.47;2.28;;;32.50;60.70;;;;;;4991432;28;20038;-80
2023/07/21 17:53:26;;;;;;;7.32;2.17;;;32.40;61.00;;;;;;4987166;28;20037;-80
2023/07/21 17:55:52;;;;;;;8.10;2.70;;;32.20;61.20;;;;;;4985963;28;20039;-79
2023/07/21 17:58:23;;;;;;;7.13;2.15;;;32.10;61.60;;;;;;4981233;28;20034;-80
2023/07/21 18:00:49;;;;;;;3.65;2.45;;;32.00;62.70;;;;;;4985986;28;20568;-80
2023/07/21 18:03:15;;;;;;;6.97;2.38;;;31.80;62.50;;;;;;4986802;28;20054;-81
2023/07/21 18:05:41;;;;;;;4.95;2.30;;;31.80;62.90;;;;;;4986214;28;20085;-80
2023/07/21 18:08:07;;;;;;;5.88;2.42;;;31.60;63.10;;;;;;4983627;28;20284;-81
2023/07/21 18:10:34;;;;;;;4.07;2.15;;;31.50;63.30;;;;;;4985307;28;20409;-80
2023/07/21 18:13:00;;;;;;;9.70;2.33;;;31.30;63.90;;;;;;4985572;28;20041;-80
2023/07/21 18:15:32;;;;;;;5.55;2.88;;;31.30;64.40;;;;;;4967411;28;20058;-81
2023/07/21 18:17:58;;;;;;;4.80;2.38;;;31.10;65.00;;;;;;4986767;28;20085;-82
2023/07/21 18:20:24;;;;;;;4.63;2.35;;;31.00;65.60;;;;;;5004346;28;20038;-81
2023/07/21 18:22:50;;;;;;;4.18;2.78;;;31.00;66.30;;;;;;5005544;28;20030;-81
2023/07/21 18:25:18;;;;;;;3.20;2.25;;;30.90;66.90;;;;;;5005525;28;20050;-80
2023/07/21 18:27:44;;;;;;;3.30;2.35;;;30.80;67.60;;;;;;5006438;28;20022;-81
2023/07/21 18:30:11;;;;;;;6.00;3.15;;;30.70;68.80;;;;;;5020240;28;20057;-81
2023/07/21 18:32:37;;;;;;;8.52;3.58;;;30.60;68.90;;;;;;5006123;28;20034;-82
2023/07/21 18:35:04;;;;;;;5.53;2.70;;;30.50;69.00;;;;;;5003004;28;20552;-80
2023/07/21 18:37:30;;;;;;;;;;;30.40;69.20;;;;;;5003933;28;20034;-81
2023/07/21 18:39:57;;;;;;;4.10;2.75;;;30.30;70.10;;;;;;5004027;28;20075;-80
2023/07/21 18:42:25;;;;;;;6.18;3.00;;;30.20;70.30;;;;;;5005141;28;20449;-82
2023/07/21 18:44:51;;;;;;;4.07;3.28;;;30.10;71.10;;;;;;5002258;28;20030;-80
2023/07/21 18:47:17;;;;;;;6.47;4.18;;;29.90;71.70;;;;;;5005540;28;20040;-80
2023/07/21 18:49:44;;;;;;;9.10;3.90;;;29.90;72.40;;;;;;5003580;28;20061;-79
2023/07/21 18:52:10;;;;;;;6.97;3.63;;;29.80;73.00;;;;;;5006376;28;20044;-79
2023/07/21 18:54:36;;;;;;;8.15;3.92;;;29.80;73.80;;;;;;5006550;28;20057;-79
2023/07/21 18:57:02;;;;;;;8.02;4.18;;;29.80;75.00;;;;;;5020752;28;20030;-79
2023/07/21 18:59:28;;;;;;;10.82;4.45;;;29.60;75.40;;;;;;5006192;28;20041;-79
2023/07/21 19:01:53;;;;;;;6.45;4.65;;;29.50;76.30;;;;;;5005262;28;20030;-80
2023/07/21 19:04:20;;;;;;;7.97;4.80;;;29.50;76.90;;;;;;5004032;28;20030;-79
2023/07/21 19:06:45;;;;;;;6.85;5.40;;;29.40;77.80;;;;;;5006417;28;20030;-80
2023/07/21 19:09:11;;;;;;;8.43;5.33;;;29.40;78.40;;;;;;5021248;28;20038;-80
2023/07/21 19:11:37;;;;;;;14.60;6.33;;;29.40;78.80;;;;;;5005682;28;20281;-80
2023/07/21 19:14:04;;;;;;;6.85;5.22;;;29.30;79.40;;;;;;5004944;28;20285;-78
2023/07/21 19:16:30;;;;;;;9.93;5.15;;;29.30;79.90;;;;;;5007235;28;20040;-79
2023/07/21 19:18:56;;;;;;;;;;;29.30;80.50;;;;;;5007217;28;20041;-78
2023/07/21 19:21:22;;;;;;;9.02;4.95;;;29.20;81.40;;;;;;5006126;28;20300;-80
2023/07/21 19:23:48;;;;;;;10.45;5.43;;;29.10;81.60;;;;;;5006986;28;20289;-79
2023/07/21 19:26:14;;;;;;;9.10;5.07;;;29.20;82.20;;;;;;5005195;28;20436;-80
2023/07/21 19:28:40;;;;;;;7.97;4.80;;;29.10;82.80;;;;;;5005094;28;20027;-79
2023/07/21 19:31:06;;;;;;;8.63;5.10;;;29.10;83.30;;;;;;5007249;28;20022;-80
2023/07/21 19:33:32;;;;;;;7.85;5.80;;;29.00;84.10;;;;;;5005664;28;20077;-79
2023/07/21 19:35:57;;;;;;;9.90;5.40;;;28.90;85.00;;;;;;5006320;28;20521;-80
2023/07/21 19:38:25;;;;;;;10.50;6.03;;;28.90;85.60;;;;;;5003596;28;20059;-79
2023/07/21 19:40:52;;;;;;;9.43;5.30;;;28.80;86.40;;;;;;5004868;28;20543;-80
2023/07/21 19:43:19;;;;;;;8.13;5.40;;;28.80;86.50;;;;;;5005862;28;20022;-80
2023/07/21 19:45:45;;;;;;;8.27;5.70;;;28.70;87.60;;;;;;5011831;28;20042;-78
2023/07/21 19:48:11;;;;;;;8.70;6.15;;;28.70;87.10;;;;;;4995654;28;20501;-81
2023/07/21 19:50:40;;;;;;;11.32;6.07;;;28.80;86.90;;;;;;4997870;28;20027;-79
2023/07/21 19:53:06;;;;;;;9.95;6.45;;;28.80;86.90;;;;;;4996542;28;20390;-79
2023/07/21 19:55:36;;;;;;;11.32;5.90;;;28.80;87.20;;;;;;4994190;28;20022;-79
2023/07/21 19:58:05;;;;;;;9.10;6.18;;;28.80;87.50;;;;;;5002072;28;20007;-80
2023/07/21 20:00:32;;;;;;;10.68;6.72;;;28.80;88.40;;;;;;4993314;28;20031;-78
2023/07/21 20:02:58;;;;;;;7.68;6.53;;;28.80;89.10;;;;;;4991577;28;20041;-79
2023/07/21 20:05:25;;;;;;;6.53;3.28;;;28.70;90.00;;;;;;4992321;28;20451;-79
2023/07/21 20:07:51;;;;;;;6.50;2.97;;;28.20;82.40;;;;;;4989461;28;20042;-79
2023/07/21 20:10:17;;;;;;;4.70;2.95;;;27.20;82.60;;;;;;4991056;28;20089;-79
2023/07/21 20:12:43;;;;;;;6.05;3.40;;;26.90;84.50;;;;;;4989313;28;20081;-80
2023/07/21 20:15:09;;;;;;;9.30;2.90;;;26.80;86.00;;;;;;4990278;28;20035;-79
2023/07/21 20:17:35;;;;;;;4.90;2.72;;;26.70;86.80;;;;;;4989082;28;20093;-80
2023/07/21 20:20:02;;;;;;;6.28;2.55;;;26.60;86.20;;;;;;4989560;28;20082;-79
2023/07/21 20:22:29;;;;;;;5.38;2.58;;;26.40;86.30;;;;;;4988426;28;20038;-79
2023/07/21 20:24:55;;;;;;;3.60;2.45;;;26.30;86.00;;;;;;4990184;28;20029;-80
2023/07/21 20:27:21;;;;;;;5.67;2.43;;;26.20;86.30;;;;;;4988961;28;20050;-79
2023/07/21 20:29:47;;;;;;;4.43;3.50;;;26.20;86.80;;;;;;4990195;28;20031;-78
2023/07/21 20:32:14;;;;;;;5.80;2.75;;;26.20;86.50;;;;;;4990270;28;20081;-79
2023/07/21 20:34:39;;;;;;;6.93;3.60;;;26.10;86.70;;;;;;4988274;28;20481;-79
2023/07/21 20:37:06;;;;;;;4.07;3.15;;;25.90;87.30;;;;;;4989408;28;20121;-79
2023/07/21 20:39:35;;;;;;;6.95;3.53;;;25.80;87.30;;;;;;4989374;28;20034;-79
2023/07/21 20:42:02;;;;;;;4.93;3.40;;;25.70;88.20;;;;;;4989549;28;20054;-79
2023/07/21 20:44:28;;;;;;;;;;;25.70;88.10;;;;;;4989744;28;20437;-78
2023/07/21 20:46:54;;;;;;;5.05;3.67;;;25.60;88.30;;;;;;4987243;28;19914;-78
2023/07/21 20:49:20;;;;;;;5.43;3.40;;;25.50;88.50;;;;;;4989585;28;20109;-80
2023/07/21 20:51:45;;;;;;;6.80;3.83;;;25.40;88.60;;;;;;4990503;28;20256;-79
2023/07/21 20:54:11;;;;;;;5.73;3.30;;;25.40;88.70;;;;;;4988404;28;20019;-79
2023/07/21 20:56:37;;;;;;;7.73;4.63;;;25.40;89.10;;;;;;4988333;28;20026;-79
2023/07/21 20:59:03;;;;;;;5.67;2.87;;;25.30;89.30;;;;;;4987902;28;20285;-79
2023/07/21 21:01:31;;;;;;;5.07;2.67;;;25.20;89.50;;;;;;4987200;28;20091;-79
2023/07/21 21:03:57;;;;;;;4.85;3.05;;;25.20;89.40;;;;;;4985060;28;20282;-79
2023/07/21 21:06:23;;;;;;;3.17;2.80;;;25.10;89.70;;;;;;4987766;28;20106;-79
2023/07/21 21:08:48;;;;;;;3.67;2.97;;;25.10;89.90;;;;;;4987377;28;20485;-79
2023/07/21 21:11:14;;;;;;;5.47;3.10;;;25.10;90.10;;;;;;4983604;28;20035;-79
2023/07/21 21:13:40;;;;;;;4.47;2.90;;;25.10;90.40;;;;;;4986684;28;20085;-78
2023/07/21 21:16:06;;;;;;;4.27;2.60;;;25.10;90.50;;;;;;4987721;28;20027;-80
2023/07/21 21:18:32;;;;;;;5.10;2.53;;;25.00;90.70;;;;;;4983541;28;20039;-79
2023/07/21 21:20:58;;;;;;;5.00;2.40;;;25.00;90.60;;;;;;4985578;28;20031;-79
2023/07/21 21:23:23;;;;;;;2.57;1.90;;;25.00;90.70;;;;;;4985659;28;20445;-80
2023/07/21 21:25:54;;;;;;;3.50;2.47;;;25.00;90.80;;;;;;4989652;28;20114;-80
2023/07/21 21:28:21;;;;;;;6.57;2.60;;;24.90;90.70;;;;;;5000290;28;20034;-80
2023/07/21 21:30:58;;;;;;;2.97;2.20;;;24.90;90.70;;;;;;4998673;28;20033;-79
2023/07/21 21:33:24;;;;;;;3.92;1.98;;;24.80;90.90;;;;;;4985606;28;20038;-80
2023/07/21 21:35:50;;;;;;;3.67;2.27;;;24.80;90.80;;;;;;4985778;28;20111;-79
2023/07/21 21:38:16;;;;;;;3.83;2.03;;;24.80;90.60;;;;;;4985636;28;20050;-79
2023/07/21 21:40:42;;;;;;;3.77;2.20;;;24.70;90.50;;;;;;4985055;28;20041;-80
2023/07/21 21:43:07;;;;;;;2.97;1.80;;;24.80;90.40;;;;;;4987338;28;20031;-79
2023/07/21 21:45:34;;;;;;;1.57;1.27;;;24.80;90.30;;;;;;4987269;28;20027;-79
2023/07/21 21:48:00;;;;;;;2.78;1.55;;;24.80;90.30;;;;;;4986178;28;20049;-79
2023/07/21 21:50:26;;;;;;;3.47;2.30;;;24.80;90.20;;;;;;4984238;28;20046;-79
2023/07/21 21:52:51;;;;;;;4.50;1.93;;;24.80;89.90;;;;;;4985294;28;20054;-78
2023/07/21 21:55:17;;;;;;;1.80;1.50;;;24.80;89.50;;;;;;4983399;28;20038;-79
2023/07/21 21:57:43;;;;;;;2.43;1.40;;;24.80;89.20;;;;;;4986980;28;20022;-78
2023/07/21 22:00:09;;;;;;;2.60;1.30;;;24.70;89.40;;;;;;4987052;28;20494;-79
2023/07/21 22:02:37;;;;;;;2.33;1.50;;;24.70;89.80;;;;;;4992992;28;20038;-80
2023/07/21 22:05:03;;;;;;;1.97;1.43;;;24.70;90.10;;;;;;4998583;28;20590;-79
2023/07/21 22:07:29;;;;;;;6.05;1.55;;;24.70;90.30;;;;;;4997683;28;20058;-80
2023/07/21 22:09:55;;;;;;;3.37;1.70;;;24.70;90.40;;;;;;5003530;28;20261;-79
2023/07/21 22:12:21;;;;;;;4.57;1.70;;;24.60;90.50;;;;;;4988257;28;20097;-80
2023/07/21 22:14:47;;;;;;;1.67;1.33;;;24.50;90.70;;;;;;4988269;28;20266;-79
2023/07/21 22:17:13;;;;;;;1.87;1.07;;;24.50;90.80;;;;;;4987235;28;20034;-79
2023/07/21 22:19:39;;;;;;;1.20;1.10;;;24.50;90.90;;;;;;4987642;28;20030;-79
2023/07/21 22:22:04;;;;;;;1.87;1.30;;;24.50;91.10;;;;;;4986189;28;20031;-79
2023/07/21 22:24:31;;;;;;;1.05;0.95;;;24.40;91.40;;;;;;5006151;28;20030;-79
2023/07/21 22:26:56;;;;;;;1.50;1.30;;;24.30;91.60;;;;;;5007245;28;20026;-79
2023/07/21 22:29:23;;;;;;;2.63;1.73;;;24.30;91.90;;;;;;5006287;28;20085;-79
2023/07/21 22:31:49;;;;;;;;;;;24.30;92.10;;;;;;5007072;28;20050;-79
2023/07/21 22:34:15;;;;;;;2.15;1.30;;;24.30;92.50;;;;;;5007346;28;20332;-78
2023/07/21 22:36:41;;;;;;;2.40;1.50;;;24.20;92.80;;;;;;5008196;28;20030;-79
2023/07/21 22:39:07;;;;;;;3.30;1.50;;;24.20;92.70;;;;;;5007339;28;20029;-78
2023/07/21 22:41:33;;;;;;;1.48;1.00;;;24.10;93.10;;;;;;4989127;28;20034;-79
2023/07/21 22:43:59;;;;;;;1.83;1.20;;;24.10;93.20;;;;;;5021894;28;20090;-79
2023/07/21 22:46:25;;;;;;;10.43;2.13;;;24.10;93.50;;;;;;5007189;28;20038;-78
2023/07/21 22:58:03;;;;;;;1.35;1.25;;;23.90;94.90;;;;;;5307153;23;20449;-83
2023/07/21 23:00:29;;;;;;;1.47;1.00;;;24.00;95.10;;;;;;4956035;29;20023;-83
2023/07/21 23:02:55;;;;;;;1.73;1.43;;;24.00;95.20;;;;;;4947911;29;20043;-83
2023/07/21 23:05:21;;;;;;;2.23;1.50;;;23.90;95.40;;;;;;4939158;29;20508;-82
2023/07/21 23:07:47;;;;;;;1.20;1.03;;;24.00;95.40;;;;;;4954118;28;20024;-82
2023/07/21 23:10:13;;;;;;;10.13;1.63;;;23.90;95.80;;;;;;4955779;29;20047;-81
2023/07/21 23:12:39;;;;;;;2.87;1.27;;;23.90;95.70;;;;;;4953597;29;20097;-81
2023/07/21 23:15:05;;;;;;;1.80;1.27;;;23.90;95.80;;;;;;4956868;29;20457;-81
2023/07/21 23:17:31;;;;;;;2.35;1.30;;;23.90;95.80;;;;;;4956033;28;20031;-82
2023/07/21 23:19:57;;;;;;;1.83;1.40;;;23.90;96.00;;;;;;4935422;29;20037;-81
2023/07/21 23:22:23;;;;;;;2.00;1.40;;;23.90;95.90;;;;;;4935787;29;20055;-81
2023/07/21 23:24:49;;;;;;;2.10;1.57;;;23.90;96.00;;;;;;4941201;29;20039;-82
2023/07/21 23:27:15;;;;;;;2.27;1.20;;;23.90;96.00;;;;;;4939984;29;20038;-81